Time;durP1;ratioP1;P1;durP2;ratioP2;P2;SDS_P1;SDS_P2;PMS_P1;PMS_P2;Temp;Humidity;BMP_temperature;BMP_pressure;BME280_temperature;BME280_humidity;BME280_pressure;Samples;Min_cycle;Max_cycle;Signal;HPM_P1;HPM_P2
2022/03/28 00:04:17;;;;;;;18.50;10.07;;;;;;;;;;10438801;28;20227;-73
2022/03/28 00:09:18;;;;;;;13.52;8.82;;;;;;;;;;10416801;28;20684;-73
2022/03/28 00:14:19;;;;;;;14.73;9.02;;;;;;;;;;10425598;28;20299;-74
2022/03/28 00:19:20;;;;;;;18.13;9.48;;;;;;;;;;10421317;28;20227;-74
2022/03/28 00:24:21;;;;;;;17.55;9.60;;;;;;;;;;10423472;28;20207;-75
2022/03/28 00:29:22;;;;;;;18.58;10.13;;;;;;;;;;10422022;28;20620;-74
2022/03/28 00:34:23;;;;;;;16.52;9.05;;;;;;;;;;10424389;28;20369;-74
2022/03/28 00:39:24;;;;;;;18.00;9.75;;;;;;;;;;10425039;28;20226;-73
2022/03/28 00:44:25;;;;;;;17.60;8.80;;;;;;;;;;10421583;28;20283;-74
2022/03/28 00:49:27;;;;;;;18.10;9.13;;;;;;;;;;10424124;28;20209;-73
2022/03/28 00:54:28;;;;;;;12.90;8.52;;;;;;;;;;10423670;28;20219;-74
2022/03/28 00:59:32;;;;;;;17.33;9.30;;;;;;;;;;10423444;28;20665;-73
2022/03/28 01:04:33;;;;;;;16.42;8.85;;;;;;;;;;10423028;28;20688;-74
2022/03/28 01:09:35;;;;;;;15.30;8.48;;;;;;;;;;10425183;28;20214;-73
2022/03/28 01:14:36;;;;;;;18.83;9.55;;;;;;;;;;10435836;28;20745;-73
2022/03/28 01:19:37;;;;;;;17.02;9.20;;;;;;;;;;10423801;28;20619;-73
2022/03/28 01:24:39;;;;;;;17.02;9.55;;;;;;;;;;10424492;28;20265;-73
2022/03/28 01:29:44;;;;;;;21.73;10.05;;;;;;;;;;10424974;28;20246;-74
2022/03/28 01:34:45;;;;;;;16.20;10.32;;;;;;;;;;10420727;28;20280;-74
2022/03/28 01:39:46;;;;;;;20.33;10.25;;;;;;;;;;10422214;28;20975;-74
2022/03/28 01:44:51;;;;;;;17.92;9.25;;;;;;;;;;10416270;28;20199;-73
2022/03/28 01:49:52;;;;;;;17.75;8.70;;;;;;;;;;10421820;28;20318;-74
2022/03/28 01:54:53;;;;;;;19.15;9.77;;;;;;;;;;10420479;28;20223;-74
2022/03/28 01:59:54;;;;;;;15.77;10.00;;;;;;;;;;10424400;28;20223;-74
2022/03/28 02:04:55;;;;;;;17.77;10.27;;;;;;;;;;10421707;28;20267;-73
2022/03/28 02:09:56;;;;;;;21.55;11.38;;;;;;;;;;10421174;28;20219;-73
2022/03/28 02:14:57;;;;;;;17.85;10.63;;;;;;;;;;10422270;28;20211;-73
2022/03/28 02:19:58;;;;;;;19.13;10.30;;;;;;;;;;10420518;28;21022;-74
2022/03/28 02:25:00;;;;;;;19.88;10.70;;;;;;;;;;10420156;28;20215;-74
2022/03/28 02:30:01;;;;;;;18.63;10.02;;;;;;;;;;10421481;28;20702;-74
2022/03/28 02:35:03;;;;;;;17.67;10.43;;;;;;;;;;10418616;28;20249;-74
2022/03/28 02:40:05;;;;;;;20.65;9.90;;;;;;;;;;10417681;28;20219;-73
2022/03/28 02:45:06;;;;;;;17.58;9.85;;;;;;;;;;10419589;28;20241;-73
2022/03/28 02:50:08;;;;;;;15.57;9.30;;;;;;;;;;10419657;28;20239;-73
2022/03/28 02:55:09;;;;;;;23.63;11.00;;;;;;;;;;10420298;28;20233;-73
2022/03/28 03:00:11;;;;;;;22.00;9.63;;;;;;;;;;10418280;28;20229;-73
2022/03/28 03:05:12;;;;;;;23.75;10.43;;;;;;;;;;10416494;28;20219;-73
2022/03/28 03:10:14;;;;;;;21.73;10.90;;;;;;;;;;10422678;28;20226;-73
2022/03/28 03:15:15;;;;;;;20.95;11.25;;;;;;;;;;10419180;28;20258;-73
2022/03/28 03:20:16;;;;;;;21.58;11.65;;;;;;;;;;10416064;28;20306;-72
2022/03/28 03:25:17;;;;;;;27.33;12.90;;;;;;;;;;10419395;28;20253;-73
2022/03/28 03:30:19;;;;;;;27.38;11.82;;;;;;;;;;10421122;28;20253;-72
2022/03/28 03:35:21;;;;;;;22.48;12.77;;;;;;;;;;10398267;28;20207;-72
2022/03/28 03:40:22;;;;;;;25.55;12.45;;;;;;;;;;10417208;28;20230;-73
2022/03/28 03:45:23;;;;;;;22.50;12.50;;;;;;;;;;10403543;28;20298;-73
2022/03/28 03:50:24;;;;;;;19.83;12.23;;;;;;;;;;10422595;28;20424;-73
2022/03/28 03:55:25;;;;;;;27.27;12.07;;;;;;;;;;10415848;28;20221;-73
2022/03/28 04:00:26;;;;;;;21.92;11.55;;;;;;;;;;10425125;28;20226;-73
2022/03/28 04:05:27;;;;;;;21.40;11.95;;;;;;;;;;10421612;28;20215;-73
2022/03/28 04:10:30;;;;;;;33.08;13.68;;;;;;;;;;10423867;28;20233;-73
2022/03/28 04:15:31;;;;;;;31.08;14.23;;;;;;;;;;10407653;28;20207;-73
2022/03/28 04:20:32;;;;;;;38.15;15.05;;;;;;;;;;10423790;28;20254;-73
2022/03/28 04:25:33;;;;;;;29.95;14.60;;;;;;;;;;10420854;28;20337;-73
2022/03/28 04:30:35;;;;;;;27.20;13.15;;;;;;;;;;10421758;28;20227;-73
2022/03/28 04:35:36;;;;;;;29.67;14.10;;;;;;;;;;10418454;28;20285;-73
2022/03/28 04:40:37;;;;;;;28.77;13.65;;;;;;;;;;10422311;28;20230;-73
2022/03/28 04:45:39;;;;;;;27.95;13.60;;;;;;;;;;10422551;28;20211;-73
2022/03/28 04:50:40;;;;;;;28.65;14.82;;;;;;;;;;10423940;28;20785;-74
2022/03/28 04:55:41;;;;;;;39.97;15.73;;;;;;;;;;10420633;28;20237;-74
2022/03/28 05:00:42;;;;;;;28.88;13.68;;;;;;;;;;10418843;28;20218;-74
2022/03/28 05:05:43;;;;;;;30.35;14.13;;;;;;;;;;10419445;28;20289;-74
2022/03/28 05:10:44;;;;;;;26.20;13.27;;;;;;;;;;10422043;28;20230;-74
2022/03/28 05:15:45;;;;;;;25.65;13.43;;;;;;;;;;10421521;28;20207;-74
2022/03/28 05:20:46;;;;;;;31.05;13.63;;;;;;;;;;10419160;28;20606;-73
2022/03/28 05:25:47;;;;;;;27.48;13.27;;;;;;;;;;10418507;28;20206;-74
2022/03/28 05:30:49;;;;;;;29.40;12.85;;;;;;;;;;10418053;28;20225;-73
2022/03/28 05:35:50;;;;;;;26.58;13.85;;;;;;;;;;10418633;28;20812;-74
2022/03/28 05:40:51;;;;;;;27.13;13.50;;;;;;;;;;10403483;28;20595;-74
2022/03/28 05:45:53;;;;;;;32.50;13.85;;;;;;;;;;10409618;28;20212;-73
2022/03/28 05:50:54;;;;;;;35.60;15.40;;;;;;;;;;10410895;28;20427;-74
2022/03/28 05:55:55;;;;;;;27.98;13.88;;;;;;;;;;10423197;28;20210;-73
2022/03/28 06:00:58;;;;;;;32.35;14.57;;;;;;;;;;10411365;28;20223;-74
2022/03/28 06:06:01;;;;;;;30.25;15.00;;;;;;;;;;10417199;28;20212;-74
2022/03/28 06:11:03;;;;;;;43.15;17.35;;;;;;;;;;10417777;28;20211;-74
2022/03/28 06:16:05;;;;;;;39.85;17.67;;;;;;;;;;10414166;28;20285;-74
2022/03/28 06:21:07;;;;;;;45.58;18.75;;;;;;;;;;10410343;28;20227;-74
2022/03/28 06:26:10;;;;;;;50.45;18.95;;;;;;;;;;10413560;28;20737;-74
2022/03/28 06:31:11;;;;;;;49.55;20.05;;;;;;;;;;10414914;28;20222;-74
2022/03/28 06:36:12;;;;;;;47.22;18.90;;;;;;;;;;10415088;28;20219;-74
2022/03/28 06:41:14;;;;;;;52.88;19.77;;;;;;;;;;10411325;28;20222;-75
2022/03/28 06:46:15;;;;;;;48.05;19.45;;;;;;;;;;10416122;28;20209;-74
2022/03/28 06:51:16;;;;;;;49.58;21.20;;;;;;;;;;10423346;28;20217;-74
2022/03/28 06:56:18;;;;;;;55.13;23.25;;;;;;;;;;10419466;28;20253;-74
2022/03/28 07:01:19;;;;;;;47.58;19.02;;;;;;;;;;10410660;28;20310;-73
2022/03/28 07:06:20;;;;;;;42.50;18.15;;;;;;;;;;10432365;28;20769;-74
2022/03/28 07:11:21;;;;;;;42.63;18.75;;;;;;;;;;10414267;28;20218;-76
2022/03/28 07:16:22;;;;;;;39.72;17.92;;;;;;;;;;10411695;28;20218;-75
2022/03/28 07:21:25;;;;;;;43.60;19.13;;;;;;;;;;10412680;28;20215;-73
2022/03/28 07:26:26;;;;;;;37.45;18.27;;;;;;;;;;10410370;28;20215;-73
2022/03/28 07:31:27;;;;;;;42.60;18.75;;;;;;;;;;10420960;28;20268;-73
2022/03/28 07:36:28;;;;;;;37.40;17.65;;;;;;;;;;10423742;28;20373;-74
2022/03/28 07:41:30;;;;;;;37.08;18.45;;;;;;;;;;10423835;28;20694;-73
2022/03/28 07:46:31;;;;;;;51.65;19.27;;;;;;;;;;10422157;28;20246;-73
2022/03/28 07:51:32;;;;;;;45.97;19.83;;;;;;;;;;10422587;28;20215;-74
2022/03/28 07:56:33;;;;;;;48.28;20.40;;;;;;;;;;10421557;28;20218;-73
2022/03/28 08:01:34;;;;;;;47.55;20.58;;;;;;;;;;10424034;28;20269;-73
2022/03/28 08:06:35;;;;;;;39.55;18.23;;;;;;;;;;10415130;28;20207;-74
2022/03/28 08:11:36;;;;;;;51.60;20.00;;;;;;;;;;10420795;28;20222;-73
2022/03/28 08:16:38;;;;;;;40.15;19.52;;;;;;;;;;10398785;28;20218;-74
2022/03/28 08:21:39;;;;;;;51.13;21.70;;;;;;;;;;10419076;28;20265;-74
2022/03/28 08:26:40;;;;;;;49.42;20.52;;;;;;;;;;10428412;28;20272;-74
2022/03/28 08:31:41;;;;;;;45.30;19.60;;;;;;;;;;10424898;28;20230;-74
2022/03/28 08:36:42;;;;;;;45.25;21.08;;;;;;;;;;10417057;28;20338;-74
2022/03/28 08:41:47;;;;;;;40.63;18.55;;;;;;;;;;10419804;28;20242;-75
2022/03/28 08:46:49;;;;;;;38.88;19.73;;;;;;;;;;10423797;28;20211;-74
2022/03/28 08:51:51;;;;;;;44.20;18.38;;;;;;;;;;10418893;28;20294;-74
2022/03/28 08:56:52;;;;;;;42.35;19.55;;;;;;;;;;10423452;28;20226;-75
2022/03/28 09:01:53;;;;;;;39.80;19.10;;;;;;;;;;10421107;28;20281;-74
2022/03/28 09:06:55;;;;;;;40.83;18.15;;;;;;;;;;10420641;28;20199;-74
2022/03/28 09:11:59;;;;;;;43.13;18.33;;;;;;;;;;10414993;28;20249;-73
2022/03/28 09:17:08;;;;;;;41.67;18.17;;;;;;;;;;10418576;28;20231;-74
2022/03/28 09:22:11;;;;;;;41.53;19.30;;;;;;;;;;10424086;28;20757;-74
2022/03/28 09:27:20;;;;;;;39.20;18.20;;;;;;;;;;10421626;28;20698;-73
2022/03/28 09:32:24;;;;;;;37.40;17.52;;;;;;;;;;10419065;28;20222;-76
2022/03/28 09:37:26;;;;;;;40.05;18.50;;;;;;;;;;10420792;28;20211;-75
2022/03/28 09:42:27;;;;;;;40.75;17.45;;;;;;;;;;10399969;28;20687;-75
2022/03/28 09:47:28;;;;;;;36.90;17.63;;;;;;;;;;10417852;28;20214;-74
2022/03/28 09:52:29;;;;;;;32.70;16.65;;;;;;;;;;10421213;28;21489;-75
2022/03/28 09:57:34;;;;;;;34.42;17.15;;;;;;;;;;10415406;28;20225;-75
2022/03/28 10:02:35;;;;;;;36.58;16.73;;;;;;;;;;10414117;28;20310;-75
2022/03/28 10:07:37;;;;;;;31.23;16.00;;;;;;;;;;10417572;28;20906;-75
2022/03/28 10:12:38;;;;;;;29.63;15.90;;;;;;;;;;10421412;28;20219;-76
2022/03/28 10:17:41;;;;;;;34.28;16.70;;;;;;;;;;10407544;28;20231;-75
2022/03/28 10:22:46;;;;;;;30.83;17.17;;;;;;;;;;10426440;28;20216;-74
2022/03/28 10:27:48;;;;;;;31.38;17.63;;;;;;;;;;10412468;28;20219;-76
2022/03/28 10:33:08;;;;;;;34.75;17.23;;;;;;;;;;10423105;28;20219;-74
2022/03/28 10:38:16;;;;;;;35.40;16.70;;;;;;;;;;10414919;28;20337;-75
2022/03/28 10:43:18;;;;;;;32.17;17.40;;;;;;;;;;10421239;28;20208;-75
2022/03/28 10:48:39;;;;;;;33.70;18.27;;;;;;;;;;10398040;28;20246;-74
2022/03/28 10:53:41;;;;;;;34.60;17.58;;;;;;;;;;10414004;28;20215;-76
2022/03/28 10:58:45;;;;;;;32.15;18.20;;;;;;;;;;10421104;28;20214;-75
2022/03/28 11:03:49;;;;;;;28.40;16.60;;;;;;;;;;10420861;28;20219;-76
2022/03/28 11:09:00;;;;;;;29.20;16.77;;;;;;;;;;10418887;28;20215;-76
2022/03/28 11:14:06;;;;;;;28.60;16.73;;;;;;;;;;10422463;28;20655;-76
2022/03/28 11:19:21;;;;;;;29.38;16.33;;;;;;;;;;10425626;28;20258;-77
2022/03/28 11:24:40;;;;;;;24.92;16.08;;;;;;;;;;10422481;28;20289;-76
2022/03/28 11:29:42;;;;;;;23.67;15.57;;;;;;;;;;10423618;28;20207;-76
2022/03/28 11:34:50;;;;;;;24.35;15.27;;;;;;;;;;10426179;28;20597;-75
2022/03/28 11:40:03;;;;;;;26.17;16.23;;;;;;;;;;10427273;28;20663;-77
2022/03/28 11:45:05;;;;;;;29.23;17.15;;;;;;;;;;10426315;28;20740;-76
2022/03/28 11:50:08;;;;;;;25.30;15.32;;;;;;;;;;10420471;28;20208;-76
2022/03/28 11:55:19;;;;;;;22.33;16.02;;;;;;;;;;10422505;28;20589;-77
2022/03/28 12:00:24;;;;;;;26.80;15.65;;;;;;;;;;10424128;28;20607;-77
2022/03/28 12:05:32;;;;;;;24.65;15.80;;;;;;;;;;10426773;28;20230;-77
2022/03/28 12:10:34;;;;;;;25.35;16.40;;;;;;;;;;10426664;28;20694;-76
2022/03/28 12:15:40;;;;;;;26.85;16.38;;;;;;;;;;10423610;28;20239;-75
2022/03/28 12:20:45;;;;;;;20.88;15.45;;;;;;;;;;10424922;28;20620;-75
2022/03/28 12:25:47;;;;;;;22.88;15.32;;;;;;;;;;10424569;28;20659;-75
2022/03/28 12:30:50;;;;;;;23.25;16.20;;;;;;;;;;10421873;28;20218;-74
2022/03/28 12:35:53;;;;;;;19.55;13.85;;;;;;;;;;10422514;28;20206;-75
2022/03/28 12:40:56;;;;;;;22.27;14.88;;;;;;;;;;10427391;28;20780;-76
2022/03/28 12:45:58;;;;;;;18.17;14.10;;;;;;;;;;10416537;28;20241;-76
2022/03/28 12:51:03;;;;;;;22.73;14.88;;;;;;;;;;10414242;28;20590;-76
2022/03/28 12:56:14;;;;;;;17.15;12.65;;;;;;;;;;10419125;28;20708;-76
2022/03/28 13:01:20;;;;;;;19.13;13.43;;;;;;;;;;10423281;28;20646;-78
2022/03/28 13:06:32;;;;;;;21.35;14.05;;;;;;;;;;10427542;28;20259;-76
2022/03/28 13:11:33;;;;;;;21.55;13.57;;;;;;;;;;10418066;28;20227;-78
2022/03/28 13:16:34;;;;;;;23.30;13.18;;;;;;;;;;10412129;28;20814;-77
2022/03/28 13:21:40;;;;;;;15.70;13.20;;;;;;;;;;10418928;28;20215;-77
2022/03/28 13:26:41;;;;;;;21.83;13.60;;;;;;;;;;10427116;28;20634;-76
2022/03/28 13:31:42;;;;;;;16.70;13.40;;;;;;;;;;10415451;28;20238;-76
2022/03/28 13:36:43;;;;;;;15.68;12.45;;;;;;;;;;10409291;28;20245;-75
2022/03/28 13:41:44;;;;;;;15.02;12.43;;;;;;;;;;10423402;28;20228;-77
2022/03/28 13:46:46;;;;;;;16.73;12.18;;;;;;;;;;10420979;28;20218;-76
2022/03/28 13:51:47;;;;;;;15.93;12.38;;;;;;;;;;10420864;28;20226;-76
2022/03/28 13:56:55;;;;;;;16.40;12.48;;;;;;;;;;10433893;28;21056;-77
2022/03/28 14:01:56;;;;;;;14.10;11.27;;;;;;;;;;10420747;28;20233;-78
2022/03/28 14:06:57;;;;;;;14.70;11.00;;;;;;;;;;10412585;28;20780;-78
2022/03/28 14:11:59;;;;;;;17.00;11.90;;;;;;;;;;10416779;28;20204;-77
2022/03/28 14:17:00;;;;;;;17.13;11.70;;;;;;;;;;10415057;28;20362;-77
2022/03/28 14:22:02;;;;;;;14.95;11.82;;;;;;;;;;10416525;28;21919;-77
2022/03/28 14:27:04;;;;;;;15.15;11.65;;;;;;;;;;10413255;28;20565;-78
2022/03/28 14:32:05;;;;;;;16.13;12.48;;;;;;;;;;10427259;28;20213;-77
2022/03/28 14:37:06;;;;;;;16.38;11.57;;;;;;;;;;10453130;28;21032;-76
2022/03/28 14:42:07;;;;;;;17.10;12.88;;;;;;;;;;10454764;28;20616;-76
2022/03/28 14:47:09;;;;;;;16.05;12.07;;;;;;;;;;10448968;28;20213;-75
2022/03/28 14:52:10;;;;;;;14.43;11.30;;;;;;;;;;10449019;28;20322;-76
2022/03/28 14:57:11;;;;;;;17.13;12.80;;;;;;;;;;10454006;28;20622;-77
2022/03/28 15:02:13;;;;;;;24.10;11.55;;;;;;;;;;10453622;28;20303;-76
2022/03/28 15:07:14;;;;;;;17.13;11.68;;;;;;;;;;10427480;28;20500;-76
2022/03/28 15:12:15;;;;;;;15.80;11.70;;;;;;;;;;10424182;28;20239;-76
2022/03/28 15:17:16;;;;;;;15.85;11.25;;;;;;;;;;10412576;28;20667;-77
2022/03/28 15:22:19;;;;;;;18.05;11.40;;;;;;;;;;10420571;28;20206;-74
2022/03/28 15:27:20;;;;;;;15.77;11.52;;;;;;;;;;10424696;28;20234;-73
2022/03/28 15:32:21;;;;;;;16.48;10.77;;;;;;;;;;10426966;28;20615;-74
2022/03/28 15:37:23;;;;;;;13.15;10.35;;;;;;;;;;10417880;28;20709;-75
2022/03/28 15:42:24;;;;;;;14.55;9.60;;;;;;;;;;10433177;28;20218;-75
2022/03/28 15:47:25;;;;;;;11.88;8.50;;;;;;;;;;10424821;28;20290;-75
2022/03/28 15:52:27;;;;;;;10.68;8.73;;;;;;;;;;10437759;28;20231;-74
2022/03/28 15:57:28;;;;;;;9.38;7.05;;;;;;;;;;10422123;28;20292;-74
2022/03/28 16:02:29;;;;;;;9.75;7.10;;;;;;;;;;10429174;28;20215;-76
2022/03/28 16:07:30;;;;;;;12.82;7.53;;;;;;;;;;10424255;28;20195;-74
2022/03/28 16:12:31;;;;;;;13.25;7.47;;;;;;;;;;10430719;28;20291;-75
2022/03/28 16:17:36;;;;;;;9.88;7.28;;;;;;;;;;10435945;28;20206;-74
2022/03/28 16:22:37;;;;;;;8.30;6.85;;;;;;;;;;10416466;28;20203;-74
2022/03/28 16:27:38;;;;;;;7.60;6.15;;;;;;;;;;10420139;28;20249;-75
2022/03/28 16:32:39;;;;;;;7.53;6.30;;;;;;;;;;10417101;28;20262;-75
2022/03/28 16:37:40;;;;;;;8.98;6.20;;;;;;;;;;10419436;28;20758;-75
2022/03/28 16:42:42;;;;;;;7.95;4.93;;;;;;;;;;10416320;28;20216;-75
2022/03/28 16:47:47;;;;;;;4.90;3.08;;;;;;;;;;10435940;28;20268;-76
2022/03/28 16:52:51;;;;;;;5.05;3.00;;;;;;;;;;10420887;28;20361;-77
2022/03/28 16:57:52;;;;;;;3.90;1.80;;;;;;;;;;10418040;28;20683;-76
2022/03/28 17:02:56;;;;;;;2.60;1.30;;;;;;;;;;10420051;28;20238;-76
2022/03/28 17:07:57;;;;;;;1.65;1.15;;;;;;;;;;10415466;28;20210;-75
2022/03/28 17:13:00;;;;;;;1.67;0.73;;;;;;;;;;10414809;28;20216;-76
2022/03/28 17:18:02;;;;;;;2.53;0.80;;;;;;;;;;10420305;28;20608;-76
2022/03/28 17:23:03;;;;;;;2.33;1.10;;;;;;;;;;10423592;28;20202;-77
2022/03/28 17:28:05;;;;;;;1.10;1.02;;;;;;;;;;10418850;28;20203;-76
2022/03/28 17:33:07;;;;;;;2.15;1.00;;;;;;;;;;10413171;28;20318;-76
2022/03/28 17:38:08;;;;;;;1.40;1.30;;;;;;;;;;10419596;28;20739;-75
2022/03/28 17:43:10;;;;;;;2.25;2.15;;;;;;;;;;10417232;28;20577;-75
2022/03/28 17:48:11;;;;;;;2.05;1.70;;;;;;;;;;10419125;28;20207;-74
2022/03/28 17:53:12;;;;;;;2.45;2.33;;;;;;;;;;10421865;28;20640;-76
2022/03/28 17:58:13;;;;;;;2.53;2.33;;;;;;;;;;10417764;28;20210;-77
2022/03/28 18:03:14;;;;;;;3.70;3.40;;;;;;;;;;10418485;28;20702;-75
2022/03/28 18:08:16;;;;;;;2.72;2.63;;;;;;;;;;10412092;28;20206;-76
2022/03/28 18:13:17;;;;;;;3.75;3.17;;;;;;;;;;10421661;28;20249;-72
2022/03/28 18:18:18;;;;;;;4.70;4.30;;;;;;;;;;10411894;28;20209;-73
2022/03/28 18:23:19;;;;;;;4.28;3.97;;;;;;;;;;10420133;28;20206;-74
2022/03/28 18:28:21;;;;;;;4.20;3.80;;;;;;;;;;10417967;28;20214;-77
2022/03/28 18:33:22;;;;;;;4.70;4.40;;;;;;;;;;10418409;28;20826;-75
2022/03/28 18:38:23;;;;;;;7.70;4.50;;;;;;;;;;10419854;28;20291;-76
2022/03/28 18:43:24;;;;;;;8.27;5.72;;;;;;;;;;10422004;28;20196;-74
2022/03/28 18:48:25;;;;;;;5.97;5.47;;;;;;;;;;10424096;28;20829;-74
2022/03/28 18:53:28;;;;;;;7.38;6.32;;;;;;;;;;10423022;28;20706;-73
2022/03/28 18:58:29;;;;;;;12.35;6.90;;;;;;;;;;10423816;28;20199;-73
2022/03/28 19:03:30;;;;;;;9.55;6.60;;;;;;;;;;10425381;28;20219;-75
2022/03/28 19:08:32;;;;;;;10.93;7.05;;;;;;;;;;10427501;28;20280;-74
2022/03/28 19:13:35;;;;;;;13.70;7.97;;;;;;;;;;10421164;28;20257;-74
2022/03/28 19:18:36;;;;;;;9.20;7.65;;;;;;;;;;10420750;28;20238;-74
2022/03/28 19:23:37;;;;;;;11.77;8.27;;;;;;;;;;10419251;28;20209;-73
2022/03/28 19:28:39;;;;;;;12.20;8.65;;;;;;;;;;10429094;28;20896;-74
2022/03/28 19:33:43;;;;;;;15.27;9.50;;;;;;;;;;10425116;28;20248;-75
2022/03/28 19:38:45;;;;;;;13.00;9.10;;;;;;;;;;10423373;28;20261;-74
2022/03/28 19:43:46;;;;;;;9.50;7.53;;;;;;;;;;10423966;28;20198;-74
2022/03/28 19:48:47;;;;;;;11.52;7.82;;;;;;;;;;10425293;28;20210;-74
2022/03/28 19:53:48;;;;;;;10.18;7.65;;;;;;;;;;10412096;28;20249;-74
2022/03/28 19:58:49;;;;;;;10.82;7.53;;;;;;;;;;10418877;28;20191;-75
2022/03/28 20:03:51;;;;;;;11.50;7.07;;;;;;;;;;10422614;28;20306;-73
2022/03/28 20:08:52;;;;;;;8.10;7.18;;;;;;;;;;10424910;28;20206;-74
2022/03/28 20:13:53;;;;;;;10.75;7.07;;;;;;;;;;10423168;28;20211;-73
2022/03/28 20:18:54;;;;;;;10.82;7.70;;;;;;;;;;10413843;28;20230;-74
2022/03/28 20:23:56;;;;;;;8.43;6.43;;;;;;;;;;10418538;28;20195;-74
2022/03/28 20:28:57;;;;;;;8.75;7.70;;;;;;;;;;10412857;28;20286;-75
2022/03/28 20:33:58;;;;;;;15.98;7.63;;;;;;;;;;10429064;28;20215;-74
2022/03/28 20:38:59;;;;;;;10.75;7.65;;;;;;;;;;10422757;28;20252;-74
2022/03/28 20:44:00;;;;;;;8.93;8.13;;;;;;;;;;10423713;28;20206;-74
2022/03/28 20:49:01;;;;;;;7.88;7.07;;;;;;;;;;10413164;28;20242;-74
2022/03/28 20:54:02;;;;;;;10.15;7.90;;;;;;;;;;10415788;28;20230;-74
2022/03/28 20:59:04;;;;;;;9.20;8.20;;;;;;;;;;10419464;28;20635;-74
2022/03/28 21:04:05;;;;;;;10.40;8.88;;;;;;;;;;10423773;28;20609;-74
2022/03/28 21:09:06;;;;;;;10.07;9.07;;;;;;;;;;10418005;28;20828;-74
2022/03/28 21:14:07;;;;;;;11.13;9.02;;;;;;;;;;10435968;28;20230;-74
2022/03/28 21:19:08;;;;;;;11.00;9.27;;;;;;;;;;10416816;28;20305;-74
2022/03/28 21:24:09;;;;;;;12.05;9.25;;;;;;;;;;10416401;28;20210;-74
2022/03/28 21:29:10;;;;;;;13.23;8.88;;;;;;;;;;10433333;28;20235;-74
2022/03/28 21:34:12;;;;;;;11.77;9.43;;;;;;;;;;10416568;28;20322;-74
2022/03/28 21:39:13;;;;;;;10.77;9.68;;;;;;;;;;10417124;28;20695;-74
2022/03/28 21:44:15;;;;;;;13.15;10.48;;;;;;;;;;10420421;28;20213;-74
2022/03/28 21:49:17;;;;;;;11.10;9.05;;;;;;;;;;10418280;28;20207;-74
2022/03/28 21:54:19;;;;;;;12.23;9.80;;;;;;;;;;10416255;28;20319;-73
2022/03/28 21:59:20;;;;;;;12.57;9.70;;;;;;;;;;10407362;28;20204;-74
2022/03/28 22:04:21;;;;;;;10.40;9.20;;;;;;;;;;10414404;28;20664;-74
2022/03/28 22:09:24;;;;;;;14.07;10.25;;;;;;;;;;10415037;28;20218;-73
2022/03/28 22:14:25;;;;;;;9.30;8.35;;;;;;;;;;10413849;28;20211;-74
2022/03/28 22:19:26;;;;;;;10.85;9.27;;;;;;;;;;10422283;28;20207;-74
2022/03/28 22:24:27;;;;;;;17.50;9.55;;;;;;;;;;10422961;28;20268;-74
2022/03/28 22:29:28;;;;;;;11.90;9.43;;;;;;;;;;10416387;28;20230;-74
2022/03/28 22:34:29;;;;;;;10.98;9.68;;;;;;;;;;10418724;28;20703;-74
2022/03/28 22:39:30;;;;;;;11.63;10.38;;;;;;;;;;10423446;28;20203;-75
2022/03/28 22:44:31;;;;;;;14.43;10.68;;;;;;;;;;10419166;28;20203;-74
2022/03/28 22:49:32;;;;;;;12.52;11.02;;;;;;;;;;10424029;28;20208;-74
2022/03/28 22:54:33;;;;;;;13.30;11.93;;;;;;;;;;10425245;28;20694;-74
2022/03/28 22:59:34;;;;;;;16.95;11.93;;;;;;;;;;10416882;28;20198;-74
2022/03/28 23:04:35;;;;;;;15.30;11.77;;;;;;;;;;10423735;28;20302;-74
2022/03/28 23:09:37;;;;;;;14.85;11.48;;;;;;;;;;10420107;28;20207;-73
2022/03/28 23:14:38;;;;;;;13.98;11.52;;;;;;;;;;10420560;28;20226;-74
2022/03/28 23:19:39;;;;;;;13.23;10.80;;;;;;;;;;10417691;28;20626;-74
2022/03/28 23:24:40;;;;;;;14.75;11.52;;;;;;;;;;10414677;28;20235;-74
2022/03/28 23:29:41;;;;;;;15.45;12.05;;;;;;;;;;10420636;28;20221;-74
2022/03/28 23:34:42;;;;;;;16.90;11.85;;;;;;;;;;10416618;28;20745;-73
2022/03/28 23:39:44;;;;;;;17.42;11.65;;;;;;;;;;10421387;28;20345;-73
2022/03/28 23:44:45;;;;;;;14.00;10.73;;;;;;;;;;10410292;28;20213;-75
2022/03/28 23:49:46;;;;;;;16.33;12.60;;;;;;;;;;10412835;28;20198;-76
2022/03/28 23:54:47;;;;;;;16.08;11.90;;;;;;;;;;10417658;28;20690;-76
2022/03/28 23:59:48;;;;;;;16.52;12.65;;;;;;;;;;10416827;28;20301;-73
